createdAt,value
2019-05-02T00:00:47.888Z,6.56
2019-05-02T00:01:47.823Z,6.61
2019-05-02T00:02:47.819Z,6.51
2019-05-02T00:03:47.742Z,6.52
2019-05-02T00:04:51.019Z,6.54
2019-05-02T00:05:47.671Z,6.52
2019-05-02T00:06:47.613Z,6.44
2019-05-02T00:07:47.614Z,6.41
2019-05-02T00:08:47.542Z,6.48
2019-05-02T00:09:50.168Z,6.38
2019-05-02T00:10:47.488Z,6.34
2019-05-02T00:11:58.298Z,6.33
2019-05-02T00:12:47.363Z,6.31
2019-05-02T00:13:47.320Z,6.40
2019-05-02T00:14:47.239Z,6.38
2019-05-02T00:15:47.247Z,6.41
2019-05-02T00:16:49.307Z,6.41
2019-05-02T00:17:47.110Z,6.37
2019-05-02T00:18:47.071Z,6.31
2019-05-02T00:19:49.993Z,6.31
2019-05-02T00:20:47.037Z,6.25
2019-05-02T00:21:46.962Z,6.19
2019-05-02T00:22:47.941Z,6.11
2019-05-02T00:23:46.838Z,6.04
2019-05-02T00:24:46.798Z,6.00
2019-05-02T00:25:47.201Z,6.00
2019-05-02T00:26:46.794Z,6.06
2019-05-02T00:27:46.679Z,6.01
2019-05-02T00:28:47.942Z,6.09
2019-05-02T00:29:46.640Z,6.09
2019-05-02T00:30:46.554Z,6.14
2019-05-02T00:31:48.680Z,6.04
2019-05-02T00:32:46.463Z,6.17
2019-05-02T00:33:46.440Z,6.11
2019-05-02T00:34:46.389Z,6.08
2019-05-02T00:35:47.596Z,6.09
2019-05-02T00:36:46.326Z,6.01
2019-05-02T00:37:46.253Z,6.00
2019-05-02T00:38:46.216Z,6.00
2019-05-02T00:39:49.252Z,6.08
2019-05-02T00:40:46.533Z,6.04
2019-05-02T00:41:46.077Z,6.04
2019-05-02T00:42:46.028Z,5.96
2019-05-02T00:43:45.966Z,6.06
2019-05-02T00:44:46.865Z,6.04
2019-05-02T00:45:45.898Z,5.99
2019-05-02T00:46:45.891Z,6.01
2019-05-02T00:47:47.870Z,6.03
2019-05-02T00:48:45.751Z,6.04
2019-05-02T00:49:45.746Z,5.90
2019-05-02T00:50:50.654Z,5.99
2019-05-02T00:51:45.656Z,5.86
2019-05-02T00:52:45.633Z,5.94
2019-05-02T00:53:48.283Z,5.89
2019-05-02T00:54:45.532Z,5.78
2019-05-02T00:55:45.469Z,5.82
2019-05-02T00:56:45.431Z,5.86
2019-05-02T00:57:45.384Z,5.75
2019-05-02T00:58:45.372Z,5.81
2019-05-02T00:59:45.311Z,5.76
2019-05-02T01:00:48.613Z,5.75
2019-05-02T01:01:45.199Z,5.83
2019-05-02T01:02:45.142Z,5.82
2019-05-02T01:03:47.166Z,5.86
2019-05-02T01:04:45.083Z,5.79
2019-05-02T01:05:45.026Z,5.82
2019-05-02T01:06:49.282Z,5.68
2019-05-02T01:07:44.931Z,5.76
2019-05-02T01:08:44.883Z,5.79
2019-05-02T01:09:46.792Z,5.79
2019-05-02T01:10:44.791Z,5.86
2019-05-02T01:11:44.793Z,5.78
2019-05-02T01:12:46.076Z,5.76
2019-05-02T01:13:44.656Z,5.72
2019-05-02T01:14:44.613Z,5.72
2019-05-02T01:15:45.974Z,5.49
2019-05-02T01:16:44.557Z,5.63
2019-05-02T01:17:44.475Z,5.57
2019-05-02T01:18:44.478Z,5.61
2019-05-02T01:19:47.348Z,5.57
2019-05-02T01:20:44.345Z,5.56
2019-05-02T01:21:44.305Z,5.58
2019-05-02T01:22:47.146Z,5.54
2019-05-02T01:23:44.269Z,5.54
2019-05-02T01:24:44.243Z,5.64
2019-05-02T01:25:47.359Z,5.60
2019-05-02T01:26:44.123Z,5.57
2019-05-02T01:27:44.038Z,5.58
2019-05-02T01:28:44.031Z,5.54
2019-05-02T01:29:44.012Z,5.46
2019-05-02T01:30:43.984Z,5.46
2019-05-02T01:31:43.888Z,5.43
2019-05-02T01:32:43.867Z,5.40
2019-05-02T01:33:43.817Z,5.36
2019-05-02T01:34:43.756Z,5.27
2019-05-02T01:35:43.691Z,5.36
2019-05-02T01:36:43.705Z,5.31
2019-05-02T01:37:43.610Z,5.43
2019-05-02T01:38:43.573Z,5.54
2019-05-02T01:39:44.085Z,5.49
2019-05-02T01:40:43.493Z,5.45
2019-05-02T01:41:43.448Z,5.39
2019-05-02T01:42:44.459Z,5.31
2019-05-02T01:43:43.347Z,5.24
2019-05-02T01:44:43.321Z,5.43
2019-05-02T01:45:46.560Z,5.27
2019-05-02T01:46:43.191Z,5.39
2019-05-02T01:47:43.156Z,5.36
2019-05-02T01:48:45.920Z,5.36
2019-05-02T01:49:43.061Z,5.40
2019-05-02T01:50:43.047Z,5.40
2019-05-02T01:51:47.631Z,5.42
2019-05-02T01:52:42.937Z,5.42
2019-05-02T01:53:42.913Z,5.42
2019-05-02T01:54:45.804Z,5.46
2019-05-02T01:55:42.840Z,5.38
2019-05-02T01:56:42.776Z,5.45
2019-05-02T01:57:44.686Z,5.36
2019-05-02T01:58:42.680Z,5.48
2019-05-02T01:59:42.677Z,5.42
2019-05-02T02:00:44.742Z,5.49
2019-05-02T02:01:42.565Z,5.42
2019-05-02T02:02:42.522Z,5.48
2019-05-02T02:03:45.705Z,5.42
2019-05-02T02:04:42.416Z,5.39
2019-05-02T02:05:42.435Z,5.36
2019-05-02T02:06:43.286Z,5.33
2019-05-02T02:07:42.301Z,5.38
2019-05-02T02:08:42.278Z,5.27
2019-05-02T02:09:43.908Z,5.28
2019-05-02T02:10:43.829Z,5.18
2019-05-02T02:11:42.133Z,5.28
2019-05-02T02:13:02.199Z,5.21
2019-05-02T02:13:42.026Z,5.02
2019-05-02T02:14:41.979Z,5.10
2019-05-02T02:15:41.934Z,5.25
2019-05-02T02:16:41.893Z,5.15
2019-05-02T02:17:41.862Z,5.21
2019-05-02T02:18:41.794Z,5.15
2019-05-02T02:19:41.773Z,5.12
2019-05-02T02:20:45.159Z,5.27
2019-05-02T02:21:43.064Z,5.20
2019-05-02T02:22:41.641Z,5.12
2019-05-02T02:23:44.896Z,5.13
2019-05-02T02:24:41.558Z,5.18
2019-05-02T02:25:41.477Z,5.27
2019-05-02T02:26:43.688Z,5.22
2019-05-02T02:27:41.397Z,5.21
2019-05-02T02:28:42.146Z,5.20
2019-05-02T02:29:43.981Z,5.15
2019-05-02T02:30:41.270Z,5.31
2019-05-02T02:31:46.903Z,5.30
2019-05-02T02:32:41.204Z,5.35
2019-05-02T02:33:47.924Z,5.36
2019-05-02T02:34:41.099Z,5.46
2019-05-02T02:35:49.742Z,5.51
2019-05-02T02:36:41.002Z,5.60
2019-05-02T02:37:51.947Z,5.53
2019-05-02T02:38:40.937Z,5.67
2019-05-02T02:39:40.863Z,5.78
2019-05-02T02:40:40.858Z,5.90
2019-05-02T02:41:45.318Z,5.78
2019-05-02T02:42:40.762Z,5.85
2019-05-02T02:43:40.735Z,5.96
2019-05-02T02:44:41.880Z,5.89
2019-05-02T02:45:40.599Z,5.99
2019-05-02T02:46:40.561Z,5.93
2019-05-02T02:47:41.149Z,5.97
2019-05-02T02:48:42.476Z,5.96
2019-05-02T02:49:40.471Z,6.08
2019-05-02T02:50:43.258Z,6.14
2019-05-02T02:51:40.380Z,6.08
2019-05-02T02:52:44.679Z,6.18
2019-05-02T02:53:40.254Z,6.25
2019-05-02T02:54:43.290Z,6.25
2019-05-02T02:55:40.211Z,6.27
2019-05-02T02:56:40.916Z,6.30
2019-05-02T02:57:40.093Z,6.37
2019-05-02T02:58:45.832Z,6.40
2019-05-02T02:59:40.062Z,6.41
2019-05-02T03:00:41.431Z,6.38
2019-05-02T03:01:39.899Z,6.48
2019-05-02T03:02:47.574Z,6.56
2019-05-02T03:03:39.806Z,6.64
2019-05-02T03:04:43.987Z,6.62
2019-05-02T03:05:39.735Z,6.56
2019-05-02T03:06:45.093Z,6.64
2019-05-02T03:07:39.665Z,6.61
2019-05-02T03:08:46.096Z,6.66
2019-05-02T03:09:39.604Z,6.59
2019-05-02T03:10:44.784Z,6.70
2019-05-02T03:11:39.504Z,6.71
2019-05-02T03:12:41.653Z,6.74
2019-05-02T03:13:51.160Z,6.79
2019-05-02T03:14:41.046Z,6.74
2019-05-02T03:15:39.323Z,6.89
2019-05-02T03:16:46.182Z,6.79
2019-05-02T03:17:39.217Z,6.84
2019-05-02T03:18:40.772Z,6.89
2019-05-02T03:19:39.160Z,6.80
2019-05-02T03:20:40.714Z,6.81
2019-05-02T03:21:39.035Z,6.89
2019-05-02T03:22:41.493Z,6.95
2019-05-02T03:23:38.966Z,6.95
2019-05-02T03:24:43.905Z,7.02
2019-05-02T03:25:50.714Z,7.03
2019-05-02T03:26:38.816Z,6.97
2019-05-02T03:27:40.428Z,7.05
2019-05-02T03:28:38.733Z,7.05
2019-05-02T03:29:43.908Z,7.13
2019-05-02T03:30:38.649Z,7.09
2019-05-02T03:31:38.673Z,7.10
2019-05-02T03:32:38.592Z,7.21
2019-05-02T03:33:51.490Z,7.21
2019-05-02T03:34:47.488Z,7.13
2019-05-02T03:35:48.146Z,7.24
2019-05-02T03:36:38.431Z,7.24
2019-05-02T03:37:38.413Z,7.30
2019-05-02T03:38:38.295Z,7.37
2019-05-02T03:39:38.270Z,7.37
2019-05-02T03:40:39.616Z,7.30
2019-05-02T03:41:38.198Z,7.25
2019-05-02T03:42:44.838Z,7.43
2019-05-02T03:43:38.086Z,7.39
2019-05-02T03:44:38.081Z,7.43
2019-05-02T03:45:39.911Z,7.40
2019-05-02T03:46:37.942Z,7.46
2019-05-02T03:47:43.552Z,7.43
2019-05-02T03:48:37.908Z,7.39
2019-05-02T03:49:40.894Z,7.37
2019-05-02T03:50:37.810Z,7.40
2019-05-02T03:51:37.747Z,7.42
2019-05-02T03:52:43.982Z,7.42
2019-05-02T03:53:37.702Z,7.46
2019-05-02T03:54:49.049Z,7.48
2019-05-02T03:55:37.549Z,7.35
2019-05-02T03:56:37.506Z,7.35
2019-05-02T03:57:41.728Z,7.53
2019-05-02T03:58:37.415Z,7.55
2019-05-02T03:59:39.407Z,7.57
2019-05-02T04:00:37.349Z,7.58
2019-05-02T04:01:41.339Z,7.63
2019-05-02T04:02:37.244Z,7.53
2019-05-02T04:03:40.777Z,7.60
2019-05-02T04:04:37.155Z,7.63
2019-05-02T04:05:40.309Z,7.58
2019-05-02T04:06:37.069Z,7.64
2019-05-02T04:07:40.430Z,7.60
2019-05-02T04:08:36.982Z,7.60
2019-05-02T04:09:39.526Z,7.74
2019-05-02T04:10:36.898Z,7.71
2019-05-02T04:11:39.014Z,7.74
2019-05-02T04:12:36.876Z,7.77
2019-05-02T04:13:38.136Z,7.72
2019-05-02T04:14:38.395Z,7.72
2019-05-02T04:15:37.575Z,7.71
2019-05-02T04:16:36.643Z,7.80
2019-05-02T04:17:37.375Z,7.74
2019-05-02T04:18:36.548Z,7.82
2019-05-02T04:19:36.658Z,7.80
2019-05-02T04:20:36.460Z,7.69
2019-05-02T04:21:36.468Z,7.82
2019-05-02T04:22:36.385Z,7.85
2019-05-02T04:23:36.346Z,7.82
2019-05-02T04:24:36.305Z,7.86
2019-05-02T04:25:36.284Z,7.79
2019-05-02T04:26:36.209Z,7.80
2019-05-02T04:27:36.202Z,7.86
2019-05-02T04:28:36.121Z,7.92
2019-05-02T04:29:36.104Z,7.95
2019-05-02T04:30:36.048Z,8.01
2019-05-02T04:31:36.002Z,8.07
2019-05-02T04:32:35.954Z,7.98
2019-05-02T04:33:36.595Z,8.02
2019-05-02T04:34:35.867Z,8.02
2019-05-02T04:35:36.442Z,8.02
2019-05-02T04:36:35.787Z,8.08
2019-05-02T04:37:40.930Z,8.12
2019-05-02T04:38:46.538Z,8.02
2019-05-02T04:39:38.856Z,8.15
2019-05-02T04:40:41.761Z,8.23
2019-05-02T04:41:35.567Z,8.19
2019-05-02T04:42:35.529Z,8.22
2019-05-02T04:43:40.787Z,8.22
2019-05-02T04:44:46.691Z,8.28
2019-05-02T04:45:47.236Z,8.28
2019-05-02T04:46:35.351Z,8.25
2019-05-02T04:47:35.313Z,8.37
2019-05-02T04:48:43.864Z,8.43
2019-05-02T04:49:36.807Z,8.29
2019-05-02T04:50:37.655Z,8.40
2019-05-02T04:51:37.951Z,8.41
2019-05-02T04:52:38.297Z,8.45
2019-05-02T04:53:40.904Z,8.45
2019-05-02T04:54:35.018Z,8.73
2019-05-02T04:55:35.007Z,8.95
2019-05-02T04:56:39.745Z,8.95
2019-05-02T04:57:41.131Z,8.98
2019-05-02T04:58:37.198Z,9.02
2019-05-02T04:59:34.799Z,9.14
2019-05-02T05:00:34.765Z,9.17
2019-05-02T05:01:43.419Z,9.33
2019-05-02T05:02:39.306Z,9.32
2019-05-02T05:03:34.638Z,9.38
2019-05-02T05:04:42.016Z,9.64
2019-05-02T05:05:34.568Z,9.68
2019-05-02T05:06:34.507Z,9.76
2019-05-02T05:07:40.818Z,9.74
2019-05-02T05:08:34.423Z,9.93
2019-05-02T05:09:34.384Z,9.86
2019-05-02T05:10:40.364Z,9.84
2019-05-02T05:11:34.292Z,9.89
2019-05-02T05:12:40.006Z,9.97
2019-05-02T05:13:34.206Z,9.89
2019-05-02T05:14:41.307Z,9.86
2019-05-02T05:15:41.183Z,9.84
2019-05-02T05:16:34.108Z,9.79
2019-05-02T05:17:34.266Z,9.58
2019-05-02T05:18:33.998Z,9.56
2019-05-02T05:19:33.968Z,9.69
2019-05-02T05:20:33.920Z,9.76
2019-05-02T05:21:33.876Z,9.78
2019-05-02T05:22:36.527Z,9.84
2019-05-02T05:23:33.804Z,9.79
2019-05-02T05:24:38.568Z,9.69
2019-05-02T05:25:33.700Z,9.57
2019-05-02T05:26:38.068Z,9.47
2019-05-02T05:27:33.623Z,9.48
2019-05-02T05:28:35.075Z,9.36
2019-05-02T05:29:33.537Z,9.33
2019-05-02T05:30:37.671Z,9.39
2019-05-02T05:31:33.454Z,9.36
2019-05-02T05:32:33.434Z,9.46
2019-05-02T05:33:33.371Z,9.61
2019-05-02T05:34:33.330Z,9.58
2019-05-02T05:35:33.292Z,9.56
2019-05-02T05:36:34.155Z,9.58
2019-05-02T05:37:33.245Z,9.64
2019-05-02T05:38:35.708Z,9.58
2019-05-02T05:39:33.128Z,9.68
2019-05-02T05:40:33.080Z,9.60
2019-05-02T05:41:33.040Z,9.64
2019-05-02T05:42:33.484Z,9.66
2019-05-02T05:43:44.754Z,9.71
2019-05-02T05:44:32.935Z,9.68
2019-05-02T05:45:32.869Z,9.76
2019-05-02T05:46:33.433Z,9.74
2019-05-02T05:47:32.822Z,9.79
2019-05-02T05:48:37.207Z,9.78
2019-05-02T05:49:32.723Z,9.86
2019-05-02T05:50:37.671Z,9.81
2019-05-02T05:51:32.623Z,9.81
2019-05-02T05:52:33.195Z,9.86
2019-05-02T05:53:32.540Z,9.75
2019-05-02T05:54:32.990Z,9.86
2019-05-02T05:55:32.476Z,9.86
2019-05-02T05:56:36.712Z,9.81
2019-05-02T05:57:32.374Z,9.81
2019-05-02T05:58:32.330Z,9.91
2019-05-02T05:59:32.304Z,9.86
2019-05-02T06:00:32.244Z,9.78
2019-05-02T06:01:34.817Z,9.78
2019-05-02T06:02:32.159Z,9.86
2019-05-02T06:03:33.954Z,10.02
2019-05-02T06:04:33.294Z,10.07
2019-05-02T06:05:33.241Z,10.17
2019-05-02T06:06:32.004Z,10.25
2019-05-02T06:07:33.662Z,10.25
2019-05-02T06:08:31.916Z,10.23
2019-05-02T06:09:32.492Z,10.32
2019-05-02T06:10:31.835Z,10.34
2019-05-02T06:11:31.793Z,10.29
2019-05-02T06:12:35.383Z,10.26
2019-05-02T06:13:31.704Z,10.32
2019-05-02T06:14:34.204Z,10.32
2019-05-02T06:15:33.842Z,10.36
2019-05-02T06:16:31.590Z,10.38
2019-05-02T06:17:31.546Z,10.48
2019-05-02T06:18:31.526Z,10.48
2019-05-02T06:19:31.481Z,10.44
2019-05-02T06:20:31.957Z,10.45
2019-05-02T06:21:31.372Z,10.52
2019-05-02T06:22:31.365Z,10.53
2019-05-02T06:23:36.415Z,10.59
2019-05-02T06:24:33.783Z,10.67
2019-05-02T06:25:33.872Z,10.51
2019-05-02T06:26:31.172Z,10.47
2019-05-02T06:27:31.145Z,10.45
2019-05-02T06:28:31.099Z,10.51
2019-05-02T06:29:31.092Z,10.59
2019-05-02T06:30:31.224Z,10.53
2019-05-02T06:31:30.966Z,10.64
2019-05-02T06:32:30.929Z,10.63
2019-05-02T06:33:32.358Z,10.63
2019-05-02T06:34:30.880Z,10.74
2019-05-02T06:35:30.803Z,10.85
2019-05-02T06:36:32.008Z,10.89
2019-05-02T06:37:30.967Z,10.99
2019-05-02T06:38:30.688Z,11.10
2019-05-02T06:39:31.979Z,11.04
2019-05-02T06:40:30.657Z,11.00
2019-05-02T06:41:30.750Z,11.03
2019-05-02T06:42:32.718Z,10.84
2019-05-02T06:43:30.586Z,10.79
2019-05-02T06:44:30.443Z,10.78
2019-05-02T06:45:32.203Z,10.74
2019-05-02T06:46:30.366Z,10.66
2019-05-02T06:47:30.461Z,10.60
2019-05-02T06:48:30.407Z,10.66
2019-05-02T06:49:30.228Z,10.63
2019-05-02T06:50:33.381Z,10.67
2019-05-02T06:51:30.149Z,10.66
2019-05-02T06:52:32.698Z,10.61
2019-05-02T06:53:30.071Z,10.76
2019-05-02T06:54:30.026Z,10.79
2019-05-02T06:55:36.226Z,10.84
2019-05-02T06:56:30.003Z,10.84
2019-05-02T06:57:29.903Z,10.85
2019-05-02T06:58:29.880Z,10.73
2019-05-02T06:59:29.829Z,10.85
2019-05-02T07:00:39.582Z,10.82
2019-05-02T07:01:29.738Z,10.79
2019-05-02T07:02:33.678Z,10.74
2019-05-02T07:03:29.675Z,10.78
2019-05-02T07:04:29.626Z,10.85
2019-05-02T07:05:29.590Z,10.81
2019-05-02T07:06:29.813Z,10.84
2019-05-02T07:07:31.391Z,10.86
2019-05-02T07:08:29.509Z,10.85
2019-05-02T07:09:40.461Z,10.96
2019-05-02T07:10:37.855Z,11.06
2019-05-02T07:11:33.302Z,11.04
2019-05-02T07:12:29.321Z,11.00
2019-05-02T07:13:29.319Z,11.09
2019-05-02T07:14:29.220Z,11.04
2019-05-02T07:15:33.563Z,11.09
2019-05-02T07:16:38.111Z,11.11
2019-05-02T07:17:32.124Z,11.22
2019-05-02T07:18:29.085Z,11.29
2019-05-02T07:19:29.388Z,11.29
2019-05-02T07:20:28.983Z,11.27
2019-05-02T07:21:28.952Z,11.39
2019-05-02T07:22:33.107Z,11.46
2019-05-02T07:23:28.873Z,11.36
2019-05-02T07:24:30.816Z,11.39
2019-05-02T07:25:28.787Z,11.36
2019-05-02T07:26:28.726Z,11.37
2019-05-02T07:27:33.793Z,11.35
2019-05-02T07:28:28.655Z,11.33
2019-05-02T07:29:28.634Z,11.33
2019-05-02T07:30:30.121Z,11.25
2019-05-02T07:31:28.552Z,11.27
2019-05-02T07:32:28.515Z,11.27
2019-05-02T07:33:32.427Z,11.22
2019-05-02T07:34:28.426Z,11.24
2019-05-02T07:35:28.374Z,11.28
2019-05-02T07:36:31.148Z,11.33
2019-05-02T07:37:28.303Z,11.35
2019-05-02T07:38:28.247Z,11.51
2019-05-02T07:39:28.232Z,11.61
2019-05-02T07:40:28.176Z,11.79
2019-05-02T07:41:29.014Z,11.65
2019-05-02T07:42:28.144Z,11.67
2019-05-02T07:43:28.114Z,11.67
2019-05-02T07:44:32.716Z,11.75
2019-05-02T07:45:27.993Z,11.67
2019-05-02T07:46:27.932Z,11.72
2019-05-02T07:47:28.913Z,11.76
2019-05-02T07:48:27.866Z,11.85
2019-05-02T07:49:32.215Z,11.96
2019-05-02T07:50:28.733Z,11.78
2019-05-02T07:51:27.722Z,11.90
2019-05-02T07:52:28.936Z,11.86
2019-05-02T07:53:27.639Z,11.76
2019-05-02T07:54:27.587Z,11.88
2019-05-02T07:55:30.276Z,11.88
2019-05-02T07:56:27.518Z,11.86
2019-05-02T07:57:30.572Z,11.83
2019-05-02T07:58:27.442Z,11.96
2019-05-02T07:59:27.389Z,11.94
2019-05-02T08:00:27.353Z,12.10
2019-05-02T08:01:27.317Z,12.13
2019-05-02T08:02:27.275Z,12.28
2019-05-02T08:03:29.484Z,12.28
2019-05-02T08:04:27.185Z,12.17
2019-05-02T08:05:27.152Z,12.19
2019-05-02T08:06:34.917Z,12.07
2019-05-02T08:07:34.066Z,11.99
2019-05-02T08:08:29.810Z,12.13
2019-05-02T08:09:27.021Z,12.16
2019-05-02T08:10:26.969Z,12.16
2019-05-02T08:11:26.928Z,12.13
2019-05-02T08:12:26.890Z,12.13
2019-05-02T08:13:26.825Z,12.16
2019-05-02T08:14:29.411Z,12.07
2019-05-02T08:15:26.799Z,11.98
2019-05-02T08:16:27.459Z,11.88
2019-05-02T08:17:26.683Z,11.86
2019-05-02T08:18:30.448Z,11.85
2019-05-02T08:19:26.587Z,11.82
2019-05-02T08:20:26.558Z,11.85
2019-05-02T08:21:27.393Z,12.07
2019-05-02T08:22:26.474Z,12.02
2019-05-02T08:23:27.883Z,12.13
2019-05-02T08:24:26.396Z,12.14
2019-05-02T08:25:26.356Z,11.90
2019-05-02T08:26:26.308Z,12.07
2019-05-02T08:27:29.194Z,11.88
2019-05-02T08:28:26.342Z,11.94
2019-05-02T08:29:28.800Z,11.98
2019-05-02T08:30:26.153Z,11.82
2019-05-02T08:31:26.128Z,11.86
2019-05-02T08:32:26.078Z,11.85
2019-05-02T08:33:29.433Z,11.82
2019-05-02T08:34:26.004Z,11.75
2019-05-02T08:35:28.029Z,11.90
2019-05-02T08:36:25.914Z,11.90
2019-05-02T08:37:25.870Z,11.96
2019-05-02T08:38:25.861Z,11.90
2019-05-02T08:39:33.487Z,11.94
2019-05-02T08:40:25.761Z,11.82
2019-05-02T08:41:25.719Z,11.88
2019-05-02T08:42:27.715Z,11.90
2019-05-02T08:43:25.666Z,11.86
2019-05-02T08:44:25.608Z,12.07
2019-05-02T08:45:25.558Z,12.07
2019-05-02T08:46:25.524Z,12.14
2019-05-02T08:47:28.716Z,12.21
2019-05-02T08:48:25.553Z,12.28
2019-05-02T08:49:25.421Z,12.32
2019-05-02T08:50:27.182Z,12.32
2019-05-02T08:51:25.323Z,12.29
2019-05-02T08:52:25.284Z,12.21
2019-05-02T08:53:25.245Z,12.21
2019-05-02T08:54:27.938Z,12.14
2019-05-02T08:55:25.154Z,12.20
2019-05-02T08:56:25.112Z,12.13
2019-05-02T08:57:25.116Z,12.27
2019-05-02T08:58:25.025Z,12.31
2019-05-02T08:59:26.193Z,12.28
2019-05-02T09:00:24.958Z,12.24
2019-05-02T09:01:34.980Z,12.27
2019-05-02T09:02:25.967Z,12.14
2019-05-02T09:03:24.916Z,12.14
2019-05-02T09:04:29.277Z,12.21
2019-05-02T09:05:24.785Z,12.34
2019-05-02T09:06:24.716Z,12.29
2019-05-02T09:07:25.083Z,12.29
2019-05-02T09:08:24.628Z,12.41
2019-05-02T09:09:28.084Z,12.41
2019-05-02T09:10:24.554Z,12.52
2019-05-02T09:11:24.543Z,12.47
2019-05-02T09:12:24.484Z,12.56
2019-05-02T09:13:29.109Z,12.64
2019-05-02T09:14:24.421Z,12.72
2019-05-02T09:15:24.386Z,12.72
2019-05-02T09:16:28.757Z,12.70
2019-05-02T09:17:35.116Z,12.75
2019-05-02T09:18:30.092Z,12.83
2019-05-02T09:19:26.417Z,12.96
2019-05-02T09:20:24.176Z,13.08
2019-05-02T09:21:26.848Z,13.04
2019-05-02T09:22:24.109Z,13.04
2019-05-02T09:23:27.555Z,13.15
2019-05-02T09:24:24.109Z,13.14
2019-05-02T09:25:23.963Z,13.39
2019-05-02T09:26:35.280Z,13.51
2019-05-02T09:27:23.998Z,13.64
2019-05-02T09:28:25.367Z,13.85
2019-05-02T09:29:23.800Z,13.71
2019-05-02T09:30:25.863Z,13.75
2019-05-02T09:31:23.728Z,13.95
2019-05-02T09:32:26.270Z,13.84
2019-05-02T09:33:23.670Z,13.91
2019-05-02T09:34:26.708Z,14.07
2019-05-02T09:35:23.563Z,14.37
2019-05-02T09:36:23.543Z,14.57
2019-05-02T09:37:23.546Z,14.52
2019-05-02T09:38:23.460Z,14.58
2019-05-02T09:39:27.452Z,14.60
2019-05-02T09:40:23.377Z,14.60
2019-05-02T09:41:27.037Z,14.83
2019-05-02T09:42:23.323Z,14.94
2019-05-02T09:43:23.265Z,15.09
2019-05-02T09:44:23.233Z,15.32
2019-05-02T09:45:27.684Z,15.11
2019-05-02T09:46:23.159Z,15.39
2019-05-02T09:47:27.268Z,15.07
2019-05-02T09:48:26.846Z,14.94
2019-05-02T09:49:23.044Z,14.86
2019-05-02T09:50:29.490Z,14.86
2019-05-02T09:51:23.016Z,14.77
2019-05-02T09:52:22.962Z,14.77
2019-05-02T09:53:25.441Z,14.54
2019-05-02T09:54:23.256Z,14.35
2019-05-02T09:55:22.814Z,14.37
2019-05-02T09:56:22.785Z,14.70
2019-05-02T09:57:22.773Z,14.98
2019-05-02T09:58:24.067Z,15.36
2019-05-02T09:59:29.209Z,15.47
2019-05-02T10:00:26.662Z,15.31
2019-05-02T10:01:22.601Z,15.59
2019-05-02T10:02:25.199Z,15.83
2019-05-02T10:03:22.702Z,16.14
2019-05-02T10:04:22.541Z,16.39
2019-05-02T10:05:23.066Z,16.50
2019-05-02T10:06:22.916Z,16.52
2019-05-02T10:07:22.425Z,16.12
2019-05-02T10:08:22.914Z,15.75
2019-05-02T10:09:23.978Z,15.86
2019-05-02T10:10:22.275Z,16.57
2019-05-02T10:11:26.107Z,17.11
2019-05-02T10:12:22.898Z,17.31
2019-05-02T10:13:22.829Z,17.81
2019-05-02T10:14:22.784Z,17.68
2019-05-02T10:15:22.312Z,17.19
2019-05-02T10:16:23.639Z,17.30
2019-05-02T10:17:23.127Z,17.16
2019-05-02T10:18:28.314Z,17.25
2019-05-02T10:19:25.860Z,17.63
2019-05-02T10:20:23.617Z,17.89
2019-05-02T10:21:22.864Z,17.99
2019-05-02T10:22:23.816Z,17.79
2019-05-02T10:23:23.379Z,17.97
2019-05-02T10:24:22.249Z,18.15
2019-05-02T10:25:23.176Z,18.25
2019-05-02T10:26:24.424Z,17.77
2019-05-02T10:27:21.749Z,18.17
2019-05-02T10:28:22.833Z,17.95
2019-05-02T10:29:28.112Z,17.30
2019-05-02T10:30:21.749Z,17.11
2019-05-02T10:31:21.907Z,16.75
2019-05-02T10:32:22.673Z,17.06
2019-05-02T10:33:22.530Z,17.48
2019-05-02T10:34:22.649Z,17.44
2019-05-02T10:35:22.875Z,17.21
2019-05-02T10:36:23.910Z,17.28
2019-05-02T10:37:21.784Z,17.41
2019-05-02T10:38:22.725Z,17.52
2019-05-02T10:39:23.096Z,17.64
2019-05-02T10:40:22.504Z,18.00
2019-05-02T10:41:22.391Z,18.15
2019-05-02T10:42:22.061Z,18.14
2019-05-02T10:43:22.256Z,18.27
2019-05-02T10:44:22.539Z,17.90
2019-05-02T10:45:22.520Z,17.63
2019-05-02T10:46:23.051Z,17.71
2019-05-02T10:47:22.196Z,17.62
2019-05-02T10:48:25.843Z,17.52
2019-05-02T10:49:22.621Z,17.84
2019-05-02T10:50:22.270Z,18.02
2019-05-02T10:51:25.867Z,18.45
2019-05-02T10:52:28.877Z,18.27
2019-05-02T10:53:21.926Z,18.50
2019-05-02T10:54:23.046Z,18.00
2019-05-02T10:55:22.303Z,17.84
2019-05-02T10:56:22.129Z,17.72
2019-05-02T10:57:21.963Z,17.79
2019-05-02T10:58:26.115Z,17.66
2019-05-02T10:59:22.102Z,17.58
2019-05-02T11:00:22.071Z,17.77
2019-05-02T11:01:21.941Z,17.62
2019-05-02T11:02:22.228Z,17.96
2019-05-02T11:03:22.410Z,17.63
2019-05-02T11:04:22.468Z,17.31
2019-05-02T11:05:22.577Z,17.41
2019-05-02T11:06:22.248Z,17.54
2019-05-02T11:07:22.753Z,17.54
2019-05-02T11:08:22.328Z,17.06
2019-05-02T11:09:22.502Z,17.18
2019-05-02T11:10:21.776Z,17.31
2019-05-02T11:11:21.886Z,17.12
2019-05-02T11:12:23.920Z,17.18
2019-05-02T11:13:21.784Z,17.30
2019-05-02T11:14:20.173Z,17.44
2019-05-02T11:15:21.603Z,17.64
2019-05-02T11:16:21.665Z,17.68
2019-05-02T11:17:20.064Z,17.43
2019-05-02T11:18:22.045Z,16.89
2019-05-02T11:19:21.392Z,16.93
2019-05-02T11:20:19.975Z,16.71
2019-05-02T11:21:19.941Z,16.81
2019-05-02T11:22:19.907Z,16.89
2019-05-02T11:23:22.006Z,17.03
2019-05-02T11:24:19.833Z,17.16
2019-05-02T11:25:19.798Z,17.56
2019-05-02T11:26:23.240Z,17.79
2019-05-02T11:27:19.739Z,17.81
2019-05-02T11:28:21.903Z,17.82
2019-05-02T11:29:19.666Z,17.87
2019-05-02T11:30:22.431Z,18.07
2019-05-02T11:31:21.712Z,18.08
2019-05-02T11:32:19.569Z,17.77
2019-05-02T11:33:19.586Z,17.87
2019-05-02T11:34:19.505Z,18.10
2019-05-02T11:35:19.467Z,17.87
2019-05-02T11:36:19.454Z,17.63
2019-05-02T11:37:19.396Z,17.44
2019-05-02T11:38:19.615Z,17.68
2019-05-02T11:39:26.951Z,17.54
2019-05-02T11:40:19.305Z,17.33
2019-05-02T11:41:19.294Z,17.56
2019-05-02T11:42:23.210Z,17.71
2019-05-02T11:43:19.191Z,17.72
2019-05-02T11:44:19.168Z,18.00
2019-05-02T11:45:19.134Z,18.23
2019-05-02T11:46:19.126Z,18.27
2019-05-02T11:47:22.707Z,18.25
2019-05-02T11:48:19.848Z,18.33
2019-05-02T11:49:18.992Z,18.35
2019-05-02T11:50:18.958Z,18.32
2019-05-02T11:51:18.926Z,18.21
2019-05-02T11:52:18.926Z,18.30
2019-05-02T11:53:29.414Z,18.25
2019-05-02T11:54:18.830Z,18.26
2019-05-02T11:55:23.361Z,18.02
2019-05-02T11:56:18.758Z,17.97
2019-05-02T11:57:22.811Z,17.95
2019-05-02T11:58:18.696Z,18.12
2019-05-02T11:59:20.804Z,18.12
2019-05-02T12:00:18.622Z,18.10
2019-05-02T12:01:20.171Z,18.48
2019-05-02T12:02:19.074Z,18.37
2019-05-02T12:03:18.521Z,18.41
2019-05-02T12:04:18.498Z,18.57
2019-05-02T12:05:18.485Z,18.37
2019-05-02T12:06:19.684Z,18.47
2019-05-02T12:07:18.394Z,18.20
2019-05-02T12:08:18.380Z,18.44
2019-05-02T12:09:18.319Z,18.36
2019-05-02T12:10:18.301Z,18.67
2019-05-02T12:11:18.285Z,18.75
2019-05-02T12:12:18.226Z,18.94
2019-05-02T12:13:18.193Z,18.85
2019-05-02T12:14:18.159Z,18.54
2019-05-02T12:15:18.126Z,18.32
2019-05-02T12:16:18.096Z,18.66
2019-05-02T12:17:18.090Z,18.94
2019-05-02T12:18:20.501Z,18.99
2019-05-02T12:19:17.998Z,19.21
2019-05-02T12:20:17.959Z,19.36
2019-05-02T12:21:17.932Z,19.14
2019-05-02T12:22:17.915Z,19.13
2019-05-02T12:23:17.895Z,18.66
2019-05-02T12:24:17.835Z,18.75
2019-05-02T12:25:17.802Z,18.67
2019-05-02T12:26:17.770Z,18.95
2019-05-02T12:27:17.738Z,19.19
2019-05-02T12:28:17.732Z,19.26
2019-05-02T12:29:17.665Z,18.84
2019-05-02T12:30:17.640Z,18.82
2019-05-02T12:31:17.609Z,18.80
2019-05-02T12:32:17.569Z,18.80
2019-05-02T12:33:17.538Z,18.63
2019-05-02T12:34:17.532Z,18.73
2019-05-02T12:35:17.475Z,18.55
2019-05-02T12:36:17.451Z,18.63
2019-05-02T12:37:17.414Z,18.58
2019-05-02T12:38:17.381Z,18.75
2019-05-02T12:39:17.351Z,18.72
2019-05-02T12:40:17.338Z,18.29
2019-05-02T12:41:22.311Z,18.18
2019-05-02T12:42:17.595Z,18.02
2019-05-02T12:43:17.214Z,17.97
2019-05-02T12:44:17.185Z,18.05
2019-05-02T12:45:17.179Z,18.25
2019-05-02T12:46:17.115Z,18.47
2019-05-02T12:47:17.084Z,18.73
2019-05-02T12:48:17.080Z,18.67
2019-05-02T12:49:26.977Z,18.62
2019-05-02T12:50:16.987Z,18.73
2019-05-02T12:51:16.982Z,18.69
2019-05-02T12:52:16.923Z,18.99
2019-05-02T12:53:16.907Z,18.91
2019-05-02T12:54:16.852Z,18.84
2019-05-02T12:55:16.816Z,18.95
2019-05-02T12:56:16.789Z,18.95
2019-05-02T12:57:16.756Z,18.80
2019-05-02T12:58:16.738Z,18.90
2019-05-02T12:59:16.715Z,18.98
2019-05-02T13:00:18.503Z,18.99
2019-05-02T13:01:16.622Z,18.70
2019-05-02T13:02:16.592Z,18.76
2019-05-02T13:03:16.561Z,18.72
2019-05-02T13:04:16.520Z,18.67